sensor_id;sensor_type;location;lat;lon;timestamp;pressure;altitude;pressure_sealevel;temperature
76009;BMP280;64700;52.130;21.270;2023-04-15T00:01:50;99806.81;;;20.79
76009;BMP280;64700;52.130;21.270;2023-04-15T00:04:15;99806.81;;;20.79
76009;BMP280;64700;52.130;21.270;2023-04-15T00:06:40;99805.13;;;20.81
76009;BMP280;64700;52.130;21.270;2023-04-15T00:09:05;99802.88;;;20.80
76009;BMP280;64700;52.130;21.270;2023-04-15T00:11:31;99807.56;;;20.79
76009;BMP280;64700;52.130;21.270;2023-04-15T00:13:56;99805.78;;;20.76
76009;BMP280;64700;52.130;21.270;2023-04-15T00:16:22;99797.72;;;20.82
76009;BMP280;64700;52.130;21.270;2023-04-15T00:18:47;99797.00;;;20.87
76009;BMP280;64700;52.130;21.270;2023-04-15T00:21:13;99792.53;;;20.84
76009;BMP280;64700;52.130;21.270;2023-04-15T00:23:38;99796.00;;;20.84
76009;BMP280;64700;52.130;21.270;2023-04-15T00:26:03;99794.78;;;20.85
76009;BMP280;64700;52.130;21.270;2023-04-15T00:28:28;99801.66;;;20.81
76009;BMP280;64700;52.130;21.270;2023-04-15T00:30:54;99800.16;;;20.80
76009;BMP280;64700;52.130;21.270;2023-04-15T00:33:20;99796.69;;;20.79
76009;BMP280;64700;52.130;21.270;2023-04-15T00:35:45;99798.94;;;20.81
76009;BMP280;64700;52.130;21.270;2023-04-15T00:38:10;99788.97;;;20.72
76009;BMP280;64700;52.130;21.270;2023-04-15T00:40:36;99787.03;;;20.78
76009;BMP280;64700;52.130;21.270;2023-04-15T00:43:01;99790.50;;;20.79
76009;BMP280;64700;52.130;21.270;2023-04-15T00:45:27;99797.44;;;20.80
76009;BMP280;64700;52.130;21.270;2023-04-15T00:47:52;99793.50;;;20.81
76009;BMP280;64700;52.130;21.270;2023-04-15T00:50:17;99789.03;;;20.78
76009;BMP280;64700;52.130;21.270;2023-04-15T00:52:43;99793.69;;;20.77
76009;BMP280;64700;52.130;21.270;2023-04-15T00:55:08;99791.25;;;20.79
76009;BMP280;64700;52.130;21.270;2023-04-15T00:57:34;99786.31;;;20.78
76009;BMP280;64700;52.130;21.270;2023-04-15T00:59:59;99785.06;;;20.79
76009;BMP280;64700;52.130;21.270;2023-04-15T01:02:25;99788.72;;;20.76
76009;BMP280;64700;52.130;21.270;2023-04-15T01:04:51;99781.81;;;20.75
76009;BMP280;64700;52.130;21.270;2023-04-15T01:07:16;99793.44;;;20.75
76009;BMP280;64700;52.130;21.270;2023-04-15T01:09:41;99785.03;;;20.73
76009;BMP280;64700;52.130;21.270;2023-04-15T01:12:07;99784.75;;;20.71
76009;BMP280;64700;52.130;21.270;2023-04-15T01:14:34;99786.25;;;20.72
76009;BMP280;64700;52.130;21.270;2023-04-15T01:17:00;99783.00;;;20.68
76009;BMP280;64700;52.130;21.270;2023-04-15T01:19:26;99779.53;;;20.68
76009;BMP280;64700;52.130;21.270;2023-04-15T01:21:51;99775.59;;;20.69
76009;BMP280;64700;52.130;21.270;2023-04-15T01:24:17;99785.44;;;20.66
76009;BMP280;64700;52.130;21.270;2023-04-15T01:26:42;99776.59;;;20.71
76009;BMP280;64700;52.130;21.270;2023-04-15T01:29:07;99775.59;;;20.69
76009;BMP280;64700;52.130;21.270;2023-04-15T01:31:32;99778.31;;;20.69
76009;BMP280;64700;52.130;21.270;2023-04-15T01:33:58;99784.00;;;20.71
76009;BMP280;64700;52.130;21.270;2023-04-15T01:36:23;99785.22;;;20.70
76009;BMP280;64700;52.130;21.270;2023-04-15T01:38:48;99781.03;;;20.69
76009;BMP280;64700;52.130;21.270;2023-04-15T01:41:14;99775.59;;;20.69
76009;BMP280;64700;52.130;21.270;2023-04-15T01:43:39;99786.19;;;20.67
76009;BMP280;64700;52.130;21.270;2023-04-15T01:46:05;99786.19;;;20.67
76009;BMP280;64700;52.130;21.270;2023-04-15T01:48:31;99780.50;;;20.65
76009;BMP280;64700;52.130;21.270;2023-04-15T01:50:57;99780.00;;;20.66
76009;BMP280;64700;52.130;21.270;2023-04-15T01:53:25;99779.25;;;20.66
76009;BMP280;64700;52.130;21.270;2023-04-15T01:55:50;99781.25;;;20.65
76009;BMP280;64700;52.130;21.270;2023-04-15T01:58:16;99790.13;;;20.66
76009;BMP280;64700;52.130;21.270;2023-04-15T02:00:42;99780.22;;;20.63
76009;BMP280;64700;52.130;21.270;2023-04-15T02:03:07;99779.75;;;20.64
76009;BMP280;64700;52.130;21.270;2023-04-15T02:05:33;99786.84;;;20.62
76009;BMP280;64700;52.130;21.270;2023-04-15T02:07:59;99782.91;;;20.63
76009;BMP280;64700;52.130;21.270;2023-04-15T02:10:24;99776.31;;;20.64
76009;BMP280;64700;52.130;21.270;2023-04-15T02:12:49;99778.00;;;20.61
76009;BMP280;64700;52.130;21.270;2023-04-15T02:15:14;99776.75;;;20.62
76009;BMP280;64700;52.130;21.270;2023-04-15T02:17:40;99771.31;;;20.62
76009;BMP280;64700;52.130;21.270;2023-04-15T02:20:09;99781.16;;;20.60
76009;BMP280;64700;52.130;21.270;2023-04-15T02:22:35;99775.56;;;20.63
76009;BMP280;64700;52.130;21.270;2023-04-15T02:25:00;99782.16;;;20.62
76009;BMP280;64700;52.130;21.270;2023-04-15T02:27:25;99781.41;;;20.62
76009;BMP280;64700;52.130;21.270;2023-04-15T02:29:52;99786.13;;;20.61
76009;BMP280;64700;52.130;21.270;2023-04-15T02:32:17;99775.56;;;20.63
76009;BMP280;64700;52.130;21.270;2023-04-15T02:34:42;99778.19;;;20.58
76009;BMP280;64700;52.130;21.270;2023-04-15T02:37:08;99780.66;;;20.56
76009;BMP280;64700;52.130;21.270;2023-04-15T02:39:33;99780.44;;;20.59
76009;BMP280;64700;52.130;21.270;2023-04-15T02:41:58;99786.59;;;20.60
76009;BMP280;64700;52.130;21.270;2023-04-15T02:44:25;99782.91;;;20.57
76009;BMP280;64700;52.130;21.270;2023-04-15T02:46:51;99779.69;;;20.59
76009;BMP280;64700;52.130;21.270;2023-04-15T02:49:18;99787.56;;;20.57
76009;BMP280;64700;52.130;21.270;2023-04-15T02:51:43;99781.16;;;20.60
76009;BMP280;64700;52.130;21.270;2023-04-15T02:54:14;99776.97;;;20.59
76009;BMP280;64700;52.130;21.270;2023-04-15T02:56:39;99781.41;;;20.56
76009;BMP280;64700;52.130;21.270;2023-04-15T02:59:04;99778.47;;;20.60
76009;BMP280;64700;52.130;21.270;2023-04-15T03:01:30;99781.13;;;20.54
76009;BMP280;64700;52.130;21.270;2023-04-15T03:03:55;99771.00;;;20.55
76009;BMP280;64700;52.130;21.270;2023-04-15T03:06:20;99779.44;;;20.57
76009;BMP280;64700;52.130;21.270;2023-04-15T03:08:45;99775.97;;;20.56
76009;BMP280;64700;52.130;21.270;2023-04-15T03:11:11;99779.63;;;20.53
76009;BMP280;64700;52.130;21.270;2023-04-15T03:13:36;99779.63;;;20.53
76009;BMP280;64700;52.130;21.270;2023-04-15T03:16:03;99775.69;;;20.54
76009;BMP280;64700;52.130;21.270;2023-04-15T03:18:29;99781.13;;;20.54
76009;BMP280;64700;52.130;21.270;2023-04-15T03:20:54;99779.63;;;20.53
76009;BMP280;64700;52.130;21.270;2023-04-15T03:23:20;99786.81;;;20.56
76009;BMP280;64700;52.130;21.270;2023-04-15T03:25:45;99776.91;;;20.53
76009;BMP280;64700;52.130;21.270;2023-04-15T03:28:10;99777.41;;;20.52
76009;BMP280;64700;52.130;21.270;2023-04-15T03:30:36;99781.63;;;20.53
76009;BMP280;64700;52.130;21.270;2023-04-15T03:33:01;99785.56;;;20.52
76009;BMP280;64700;52.130;21.270;2023-04-15T03:35:26;99787.25;;;20.49
76009;BMP280;64700;52.130;21.270;2023-04-15T03:37:51;99788.28;;;20.52
76009;BMP280;64700;52.130;21.270;2023-04-15T03:40:17;99781.09;;;20.48
76009;BMP280;64700;52.130;21.270;2023-04-15T03:42:42;99783.81;;;20.48
76009;BMP280;64700;52.130;21.270;2023-04-15T03:45:07;99791.66;;;20.46
76009;BMP280;64700;52.130;21.270;2023-04-15T03:47:32;99782.75;;;20.46
76009;BMP280;64700;52.130;21.270;2023-04-15T03:49:58;99781.75;;;20.43
76009;BMP280;64700;52.130;21.270;2023-04-15T03:52:23;99780.31;;;20.48
76009;BMP280;64700;52.130;21.270;2023-04-15T03:54:48;99787.72;;;20.47
76009;BMP280;64700;52.130;21.270;2023-04-15T03:57:13;99798.56;;;20.47
76009;BMP280;64700;52.130;21.270;2023-04-15T03:59:38;99789.97;;;20.49
76009;BMP280;64700;52.130;21.270;2023-04-15T04:02:04;99802.03;;;20.48
76009;BMP280;64700;52.130;21.270;2023-04-15T04:04:29;99799.31;;;20.48
76009;BMP280;64700;52.130;21.270;2023-04-15T04:06:54;99800.25;;;20.45
76009;BMP280;64700;52.130;21.270;2023-04-15T04:09:20;99800.53;;;20.47
76009;BMP280;64700;52.130;21.270;2023-04-15T04:11:45;99797.81;;;20.47
76009;BMP280;64700;52.130;21.270;2023-04-15T04:14:10;99785.47;;;20.46
76009;BMP280;64700;52.130;21.270;2023-04-15T04:16:36;99801.75;;;20.46
76009;BMP280;64700;52.130;21.270;2023-04-15T04:19:01;99797.06;;;20.46
76009;BMP280;64700;52.130;21.270;2023-04-15T04:21:26;99797.06;;;20.46
76009;BMP280;64700;52.130;21.270;2023-04-15T04:23:52;99794.84;;;20.45
76009;BMP280;64700;52.130;21.270;2023-04-15T04:26:17;99792.63;;;20.43
76009;BMP280;64700;52.130;21.270;2023-04-15T04:28:42;99797.53;;;20.45
76009;BMP280;64700;52.130;21.270;2023-04-15T04:31:07;99800.53;;;20.47
76009;BMP280;64700;52.130;21.270;2023-04-15T04:33:32;99805.69;;;20.45
76009;BMP280;64700;52.130;21.270;2023-04-15T04:35:58;99797.06;;;20.46
76009;BMP280;64700;52.130;21.270;2023-04-15T04:38:23;99795.59;;;20.45
76009;BMP280;64700;52.130;21.270;2023-04-15T04:40:48;99790.16;;;20.45
76009;BMP280;64700;52.130;21.270;2023-04-15T04:43:13;99798.09;;;20.49
76009;BMP280;64700;52.130;21.270;2023-04-15T04:45:39;99796.31;;;20.46
76009;BMP280;64700;52.130;21.270;2023-04-15T04:48:05;99793.84;;;20.42
76009;BMP280;64700;52.130;21.270;2023-04-15T04:50:32;99801.97;;;20.42
76009;BMP280;64700;52.130;21.270;2023-04-15T04:52:57;99793.84;;;20.42
76009;BMP280;64700;52.130;21.270;2023-04-15T04:55:23;99793.56;;;20.40
76009;BMP280;64700;52.130;21.270;2023-04-15T04:57:48;99800.75;;;20.43
76009;BMP280;64700;52.130;21.270;2023-04-15T05:00:13;99800.25;;;20.45
76009;BMP280;64700;52.130;21.270;2023-04-15T05:02:38;99794.34;;;20.46
76009;BMP280;64700;52.130;21.270;2023-04-15T05:05:05;99802.81;;;20.48
76009;BMP280;64700;52.130;21.270;2023-04-15T05:07:31;99795.66;;;20.51
76009;BMP280;64700;52.130;21.270;2023-04-15T05:09:56;99792.13;;;20.45
76009;BMP280;64700;52.130;21.270;2023-04-15T05:12:21;99804.94;;;20.44
76009;BMP280;64700;52.130;21.270;2023-04-15T05:14:46;99803.25;;;20.47
76009;BMP280;64700;52.130;21.270;2023-04-15T05:17:11;99794.59;;;20.43
76009;BMP280;64700;52.130;21.270;2023-04-15T05:19:37;99794.84;;;20.45
76009;BMP280;64700;52.130;21.270;2023-04-15T05:22:02;99802.50;;;20.46
76009;BMP280;64700;52.130;21.270;2023-04-15T05:24:28;99804.22;;;20.44
76009;BMP280;64700;52.130;21.270;2023-04-15T05:26:53;99800.47;;;20.41
76009;BMP280;64700;52.130;21.270;2023-04-15T05:29:18;99802.44;;;20.41
76009;BMP280;64700;52.130;21.270;2023-04-15T05:31:43;99800.47;;;20.41
76009;BMP280;64700;52.130;21.270;2023-04-15T05:34:08;99807.47;;;20.48
76009;BMP280;64700;52.130;21.270;2023-04-15T05:36:35;99806.25;;;20.49
76009;BMP280;64700;52.130;21.270;2023-04-15T05:39:01;99807.59;;;20.59
76009;BMP280;64700;52.130;21.270;2023-04-15T05:41:26;99806.31;;;20.55
76009;BMP280;64700;52.130;21.270;2023-04-15T05:43:51;99812.03;;;20.57
76009;BMP280;64700;52.130;21.270;2023-04-15T05:46:16;99812.28;;;20.59
76009;BMP280;64700;52.130;21.270;2023-04-15T05:48:41;99807.38;;;20.63
76009;BMP280;64700;52.130;21.270;2023-04-15T05:51:07;99814.38;;;20.69
76009;BMP280;64700;52.130;21.270;2023-04-15T05:53:32;99812.06;;;20.62
76009;BMP280;64700;52.130;21.270;2023-04-15T05:55:57;99808.34;;;20.60
76009;BMP280;64700;52.130;21.270;2023-04-15T05:58:22;99807.34;;;20.57
76009;BMP280;64700;52.130;21.270;2023-04-15T06:00:48;99819.13;;;20.54
76009;BMP280;64700;52.130;21.270;2023-04-15T06:03:13;99812.78;;;20.57
76009;BMP280;64700;52.130;21.270;2023-04-15T06:05:38;99809.09;;;20.60
76009;BMP280;64700;52.130;21.270;2023-04-15T06:08:04;99817.47;;;20.57
76009;BMP280;64700;52.130;21.270;2023-04-15T06:10:30;99809.78;;;20.55
76009;BMP280;64700;52.130;21.270;2023-04-15T06:13:00;99823.34;;;20.55
76009;BMP280;64700;52.130;21.270;2023-04-15T06:15:25;99828.50;;;20.53
76009;BMP280;64700;52.130;21.270;2023-04-15T06:17:51;99823.28;;;20.49
76009;BMP280;64700;52.130;21.270;2023-04-15T06:20:16;99832.19;;;20.50
76009;BMP280;64700;52.130;21.270;2023-04-15T06:22:41;99830.00;;;20.54
76009;BMP280;64700;52.130;21.270;2023-04-15T06:25:06;99827.78;;;20.53
76009;BMP280;64700;52.130;21.270;2023-04-15T06:27:33;99829.00;;;20.52
76009;BMP280;64700;52.130;21.270;2023-04-15T06:29:58;99833.69;;;20.51
76009;BMP280;64700;52.130;21.270;2023-04-15T06:32:23;99829.53;;;20.56
76009;BMP280;64700;52.130;21.270;2023-04-15T06:34:48;99833.00;;;20.56
76009;BMP280;64700;52.130;21.270;2023-04-15T06:37:14;99836.94;;;20.55
76009;BMP280;64700;52.130;21.270;2023-04-15T06:39:40;99833.22;;;20.53
76009;BMP280;64700;52.130;21.270;2023-04-15T06:42:06;99838.66;;;20.53
76009;BMP280;64700;52.130;21.270;2023-04-15T06:44:31;99830.69;;;20.49
76009;BMP280;64700;52.130;21.270;2023-04-15T06:46:57;99832.94;;;20.51
76009;BMP280;64700;52.130;21.270;2023-04-15T06:49:22;99831.44;;;20.49
76009;BMP280;64700;52.130;21.270;2023-04-15T06:51:47;99838.13;;;20.48
76009;BMP280;64700;52.130;21.270;2023-04-15T06:54:12;99834.34;;;20.46
76009;BMP280;64700;52.130;21.270;2023-04-15T06:56:37;99832.09;;;20.44
76009;BMP280;64700;52.130;21.270;2023-04-15T06:59:03;99824.69;;;20.45
76009;BMP280;64700;52.130;21.270;2023-04-15T07:01:28;99833.88;;;20.47
76009;BMP280;64700;52.130;21.270;2023-04-15T07:03:53;99839.31;;;20.47
76009;BMP280;64700;52.130;21.270;2023-04-15T07:06:18;99847.47;;;20.47
76009;BMP280;64700;52.130;21.270;2023-04-15T07:08:43;99847.47;;;20.47
76009;BMP280;64700;52.130;21.270;2023-04-15T07:11:09;99850.03;;;20.57
76009;BMP280;64700;52.130;21.270;2023-04-15T07:13:34;99847.34;;;20.57
76009;BMP280;64700;52.130;21.270;2023-04-15T07:15:59;99848.00;;;20.52
76009;BMP280;64700;52.130;21.270;2023-04-15T07:18:24;99850.91;;;20.48
76009;BMP280;64700;52.130;21.270;2023-04-15T07:20:50;99852.41;;;20.49
76009;BMP280;64700;52.130;21.270;2023-04-15T07:23:15;99854.84;;;20.47
76009;BMP280;64700;52.130;21.270;2023-04-15T07:25:41;99854.41;;;20.48
76009;BMP280;64700;52.130;21.270;2023-04-15T07:28:06;99855.41;;;20.51
76009;BMP280;64700;52.130;21.270;2023-04-15T07:30:31;99857.84;;;20.49
76009;BMP280;64700;52.130;21.270;2023-04-15T07:32:57;99858.31;;;20.47
76009;BMP280;64700;52.130;21.270;2023-04-15T07:35:22;99857.56;;;20.47
76009;BMP280;64700;52.130;21.270;2023-04-15T07:37:49;99860.28;;;20.47
76009;BMP280;64700;52.130;21.270;2023-04-15T07:40:15;99849.13;;;20.45
76009;BMP280;64700;52.130;21.270;2023-04-15T07:42:40;99847.47;;;20.47
76009;BMP280;64700;52.130;21.270;2023-04-15T07:45:06;99849.13;;;20.45
76009;BMP280;64700;52.130;21.270;2023-04-15T07:47:31;99846.25;;;20.48
76009;BMP280;64700;52.130;21.270;2023-04-15T07:49:56;99848.47;;;20.50
76009;BMP280;64700;52.130;21.270;2023-04-15T07:52:22;99848.97;;;20.48
76009;BMP280;64700;52.130;21.270;2023-04-15T07:54:47;99848.97;;;20.48
76009;BMP280;64700;52.130;21.270;2023-04-15T07:57:12;99840.34;;;20.50
76009;BMP280;64700;52.130;21.270;2023-04-15T07:59:37;99856.63;;;20.50
76009;BMP280;64700;52.130;21.270;2023-04-15T08:02:02;99843.59;;;20.54
76009;BMP280;64700;52.130;21.270;2023-04-15T08:04:28;99848.56;;;20.56
76009;BMP280;64700;52.130;21.270;2023-04-15T08:06:53;99846.31;;;20.54
76009;BMP280;64700;52.130;21.270;2023-04-15T08:09:18;99847.53;;;20.53
76009;BMP280;64700;52.130;21.270;2023-04-15T08:11:44;99853.97;;;20.56
76009;BMP280;64700;52.130;21.270;2023-04-15T08:14:09;99843.88;;;20.56
76009;BMP280;64700;52.130;21.270;2023-04-15T08:16:34;99842.91;;;20.59
76009;BMP280;64700;52.130;21.270;2023-04-15T08:18:59;99854.50;;;20.60
76009;BMP280;64700;52.130;21.270;2023-04-15T08:21:25;99853.75;;;20.59
76009;BMP280;64700;52.130;21.270;2023-04-15T08:23:51;99851.50;;;20.58
76009;BMP280;64700;52.130;21.270;2023-04-15T08:26:17;99851.50;;;20.58
76009;BMP280;64700;52.130;21.270;2023-04-15T08:28:43;99854.50;;;20.60
76009;BMP280;64700;52.130;21.270;2023-04-15T08:31:08;99849.16;;;20.65
76009;BMP280;64700;52.130;21.270;2023-04-15T08:33:34;99861.09;;;20.73
76009;BMP280;64700;52.130;21.270;2023-04-15T08:35:59;99859.31;;;20.70
76009;BMP280;64700;52.130;21.270;2023-04-15T08:38:24;99863.00;;;20.67
76009;BMP280;64700;52.130;21.270;2023-04-15T08:40:49;99857.69;;;20.58
76009;BMP280;64700;52.130;21.270;2023-04-15T08:43:22;99867.34;;;20.79
76009;BMP280;64700;52.130;21.270;2023-04-15T08:45:52;99858.97;;;20.83
76009;BMP280;64700;52.130;21.270;2023-04-15T08:48:17;99859.47;;;20.81
76009;BMP280;64700;52.130;21.270;2023-04-15T08:50:43;99863.59;;;20.77
76009;BMP280;64700;52.130;21.270;2023-04-15T08:53:09;99858.09;;;20.71
76009;BMP280;64700;52.130;21.270;2023-04-15T08:55:35;99866.47;;;20.68
76009;BMP280;64700;52.130;21.270;2023-04-15T08:58:01;99866.78;;;20.75
76009;BMP280;64700;52.130;21.270;2023-04-15T09:00:27;99855.38;;;20.71
76009;BMP280;64700;52.130;21.270;2023-04-15T09:02:53;99862.53;;;20.69
76009;BMP280;64700;52.130;21.270;2023-04-15T09:05:19;99863.28;;;20.69
76009;BMP280;64700;52.130;21.270;2023-04-15T09:07:45;99866.25;;;20.71
76009;BMP280;64700;52.130;21.270;2023-04-15T09:10:10;99860.59;;;20.75
76009;BMP280;64700;52.130;21.270;2023-04-15T09:12:36;99866.00;;;20.69
76009;BMP280;64700;52.130;21.270;2023-04-15T09:15:02;99862.53;;;20.69
76009;BMP280;64700;52.130;21.270;2023-04-15T09:17:27;99866.19;;;20.66
76009;BMP280;64700;52.130;21.270;2023-04-15T09:22:33;99870.47;;;20.72
76009;BMP280;64700;52.130;21.270;2023-04-15T09:24:59;99865.78;;;20.73
76009;BMP280;64700;52.130;21.270;2023-04-15T09:27:25;99871.16;;;20.67
76009;BMP280;64700;52.130;21.270;2023-04-15T09:29:50;99865.94;;;20.64
76009;BMP280;64700;52.130;21.270;2023-04-15T09:32:17;99861.44;;;20.61
76009;BMP280;64700;52.130;21.270;2023-04-15T09:34:43;99866.88;;;20.61
76009;BMP280;64700;52.130;21.270;2023-04-15T09:37:09;99875.84;;;20.67
76009;BMP280;64700;52.130;21.270;2023-04-15T09:39:51;99869.66;;;20.66
76009;BMP280;64700;52.130;21.270;2023-04-15T09:42:16;99873.13;;;20.67
76009;BMP280;64700;52.130;21.270;2023-04-15T09:44:48;99879.22;;;20.82
76009;BMP280;64700;52.130;21.270;2023-04-15T09:47:26;99874.91;;;20.96
76009;BMP280;64700;52.130;21.270;2023-04-15T09:49:54;99877.72;;;21.07
76009;BMP280;64700;52.130;21.270;2023-04-15T09:52:20;99870.66;;;21.15
76009;BMP280;64700;52.130;21.270;2023-04-15T09:54:45;99874.91;;;21.21
76009;BMP280;64700;52.130;21.270;2023-04-15T09:57:11;99887.75;;;21.21
76009;BMP280;64700;52.130;21.270;2023-04-15T09:59:36;99879.88;;;21.23
76009;BMP280;64700;52.130;21.270;2023-04-15T10:02:03;99880.78;;;21.14
76009;BMP280;64700;52.130;21.270;2023-04-15T10:48:52;99881.22;;;20.87
76009;BMP280;64700;52.130;21.270;2023-04-15T10:51:30;99884.97;;;20.89
76009;BMP280;64700;52.130;21.270;2023-04-15T10:53:56;99889.66;;;20.89
76009;BMP280;64700;52.130;21.270;2023-04-15T10:56:22;99886.66;;;20.87
76009;BMP280;64700;52.130;21.270;2023-04-15T10:58:47;99892.59;;;20.85
76009;BMP280;64700;52.130;21.270;2023-04-15T11:01:13;99883.41;;;20.83
76009;BMP280;64700;52.130;21.270;2023-04-15T11:03:39;99890.22;;;20.93
76009;BMP280;64700;52.130;21.270;2023-04-15T11:06:05;99891.09;;;20.84
76009;BMP280;64700;52.130;21.270;2023-04-15T11:11:16;99893.06;;;20.84
76009;BMP280;64700;52.130;21.270;2023-04-15T11:13:48;99893.00;;;20.78
76009;BMP280;64700;52.130;21.270;2023-04-15T11:16:13;99897.88;;;20.74
76009;BMP280;64700;52.130;21.270;2023-04-15T11:18:38;99902.38;;;20.77
76009;BMP280;64700;52.130;21.270;2023-04-15T11:21:04;99900.69;;;20.80
76009;BMP280;64700;52.130;21.270;2023-04-15T11:26:02;99905.56;;;20.96
76009;BMP280;64700;52.130;21.270;2023-04-15T11:28:30;99908.06;;;21.00
76009;BMP280;64700;52.130;21.270;2023-04-15T11:30:56;99908.56;;;20.98
76009;BMP280;64700;52.130;21.270;2023-04-15T11:33:21;99911.66;;;20.91
76009;BMP280;64700;52.130;21.270;2023-04-15T11:35:47;99914.28;;;21.06
76009;BMP280;64700;52.130;21.270;2023-04-15T11:38:13;99921.50;;;21.09
76009;BMP280;64700;52.130;21.270;2023-04-15T11:40:39;99924.66;;;21.07
76009;BMP280;64700;52.130;21.270;2023-04-15T11:43:15;99928.78;;;20.97
76009;BMP280;64700;52.130;21.270;2023-04-15T11:48:13;99928.72;;;20.91
76009;BMP280;64700;52.130;21.270;2023-04-15T11:50:39;99932.09;;;20.86
76009;BMP280;64700;52.130;21.270;2023-04-15T11:53:06;99933.59;;;20.87
76009;BMP280;64700;52.130;21.270;2023-04-15T11:55:40;99943.78;;;20.92
76009;BMP280;64700;52.130;21.270;2023-04-15T11:58:09;99940.75;;;20.85
76009;BMP280;64700;52.130;21.270;2023-04-15T12:00:35;99938.91;;;20.76
76009;BMP280;64700;52.130;21.270;2023-04-15T12:03:13;99932.94;;;20.72
76009;BMP280;64700;52.130;21.270;2023-04-15T12:08:24;99940.25;;;20.86
76009;BMP280;64700;52.130;21.270;2023-04-15T12:10:50;99947.28;;;20.73
76009;BMP280;64700;52.130;21.270;2023-04-15T12:13:15;99955.22;;;20.76
76009;BMP280;64700;52.130;21.270;2023-04-15T12:15:40;99958.63;;;20.71
76009;BMP280;64700;52.130;21.270;2023-04-15T12:18:05;99955.84;;;20.66
76009;BMP280;64700;52.130;21.270;2023-04-15T12:20:31;99953.59;;;20.64
76009;BMP280;64700;52.130;21.270;2023-04-15T12:23:04;99957.41;;;20.72
76009;BMP280;64700;52.130;21.270;2023-04-15T12:25:35;99962.94;;;20.78
76009;BMP280;64700;52.130;21.270;2023-04-15T12:28:00;99969.09;;;20.78
76009;BMP280;64700;52.130;21.270;2023-04-15T12:30:26;99966.38;;;20.78
76009;BMP280;64700;52.130;21.270;2023-04-15T12:32:51;99958.22;;;20.78
76009;BMP280;64700;52.130;21.270;2023-04-15T12:35:16;99959.78;;;20.85
76009;BMP280;64700;52.130;21.270;2023-04-15T12:37:43;99958.81;;;20.88
76009;BMP280;64700;52.130;21.270;2023-04-15T12:40:08;99956.09;;;21.08
76009;BMP280;64700;52.130;21.270;2023-04-15T12:42:34;99966.53;;;21.15
76009;BMP280;64700;52.130;21.270;2023-04-15T12:44:59;99970.00;;;21.16
76009;BMP280;64700;52.130;21.270;2023-04-15T12:47:24;99962.34;;;21.14
76009;BMP280;64700;52.130;21.270;2023-04-15T12:49:50;99969.25;;;21.15
76009;BMP280;64700;52.130;21.270;2023-04-15T12:52:15;99966.53;;;21.15
76009;BMP280;64700;52.130;21.270;2023-04-15T12:54:40;99966.28;;;21.13
76009;BMP280;64700;52.130;21.270;2023-04-15T12:57:05;99968.00;;;21.11
76009;BMP280;64700;52.130;21.270;2023-04-15T12:59:31;99966.28;;;21.13
76009;BMP280;64700;52.130;21.270;2023-04-15T13:01:56;99968.03;;;21.16
76009;BMP280;64700;52.130;21.270;2023-04-15T13:04:21;99975.44;;;21.16
76009;BMP280;64700;52.130;21.270;2023-04-15T13:06:47;99979.66;;;21.17
76009;BMP280;64700;52.130;21.270;2023-04-15T13:09:12;99986.84;;;21.20
76009;BMP280;64700;52.130;21.270;2023-04-15T13:11:37;99985.38;;;21.19
76009;BMP280;64700;52.130;21.270;2023-04-15T13:14:03;99989.78;;;21.16
76009;BMP280;64700;52.130;21.270;2023-04-15T13:16:29;99991.75;;;21.16
76009;BMP280;64700;52.130;21.270;2023-04-15T13:18:54;99986.81;;;21.14
76009;BMP280;64700;52.130;21.270;2023-04-15T13:21:19;99997.47;;;21.18
76009;BMP280;64700;52.130;21.270;2023-04-15T13:23:45;100004.97;;;21.23
76009;BMP280;64700;52.130;21.270;2023-04-15T13:26:10;99997.81;;;21.25
76009;BMP280;64700;52.130;21.270;2023-04-15T13:28:36;100009.16;;;21.24
76009;BMP280;64700;52.130;21.270;2023-04-15T13:31:01;100009.09;;;21.18
76009;BMP280;64700;52.130;21.270;2023-04-15T13:33:26;100011.28;;;21.14
76009;BMP280;64700;52.130;21.270;2023-04-15T13:35:52;100008.28;;;21.12
76009;BMP280;64700;52.130;21.270;2023-04-15T13:38:17;100003.34;;;21.11
76009;BMP280;64700;52.130;21.270;2023-04-15T13:40:42;100007.53;;;21.12
76009;BMP280;64700;52.130;21.270;2023-04-15T13:43:07;100011.00;;;21.12
76009;BMP280;64700;52.130;21.270;2023-04-15T13:45:33;100004.81;;;21.12
76009;BMP280;64700;52.130;21.270;2023-04-15T13:47:58;100009.50;;;21.11
76009;BMP280;64700;52.130;21.270;2023-04-15T13:50:23;100005.09;;;21.14
76009;BMP280;64700;52.130;21.270;2023-04-15T13:52:48;100002.38;;;21.14
76009;BMP280;64700;52.130;21.270;2023-04-15T13:55:14;100003.88;;;21.15
76009;BMP280;64700;52.130;21.270;2023-04-15T13:57:39;99995.22;;;21.16
76009;BMP280;64700;52.130;21.270;2023-04-15T14:00:04;100005.63;;;21.18
76009;BMP280;64700;52.130;21.270;2023-04-15T14:02:30;99996.97;;;21.19
76009;BMP280;64700;52.130;21.270;2023-04-15T14:04:55;100008.75;;;21.31
76009;BMP280;64700;52.130;21.270;2023-04-15T14:07:20;100012.94;;;21.32
76009;BMP280;64700;52.130;21.270;2023-04-15T14:09:46;100012.94;;;21.32
76009;BMP280;64700;52.130;21.270;2023-04-15T14:12:12;100025.78;;;21.31
76009;BMP280;64700;52.130;21.270;2023-04-15T14:14:37;100004.31;;;21.33
76009;BMP280;64700;52.130;21.270;2023-04-15T14:17:02;100009.28;;;21.35
76009;BMP280;64700;52.130;21.270;2023-04-15T14:19:29;100004.31;;;21.33
76009;BMP280;64700;52.130;21.270;2023-04-15T14:21:55;100004.78;;;21.32
76009;BMP280;64700;52.130;21.270;2023-04-15T14:24:20;100008.25;;;21.32
76009;BMP280;64700;52.130;21.270;2023-04-15T14:26:45;100006.03;;;21.31
76009;BMP280;64700;52.130;21.270;2023-04-15T14:29:10;100012.91;;;21.26
76009;BMP280;64700;52.130;21.270;2023-04-15T14:31:36;100007.19;;;21.24
76009;BMP280;64700;52.130;21.270;2023-04-15T14:34:01;100008.69;;;21.25
76009;BMP280;64700;52.130;21.270;2023-04-15T14:36:26;100015.88;;;21.28
76009;BMP280;64700;52.130;21.270;2023-04-15T14:38:52;100018.34;;;21.26
76009;BMP280;64700;52.130;21.270;2023-04-15T14:41:17;100020.56;;;21.28
76009;BMP280;64700;52.130;21.270;2023-04-15T14:43:42;100023.56;;;21.30
76009;BMP280;64700;52.130;21.270;2023-04-15T14:46:07;100030.50;;;21.31